Time;durP1;ratioP1;P1;durP2;ratioP2;P2;SDS_P1;SDS_P2;PMS_P1;PMS_P2;Temp;Humidity;BMP_temperature;BMP_pressure;BME280_temperature;BME280_humidity;BME280_pressure;Samples;Min_cycle;Max_cycle;Signal;HPM_P1;HPM_P2
2023/09/25 00:00:07;;;;;;;5.65;4.03;;;;;;;-144.32;100.00;68061.97;10154975;28;20385;-79
2023/09/25 00:05:08;;;;;;;4.13;3.72;;;;;;;-144.32;100.00;68061.97;10172922;29;20048;-77
2023/09/25 00:10:09;;;;;;;3.97;3.67;;;;;;;-144.32;100.00;68061.97;10168012;29;20107;-79
2023/09/25 00:15:10;;;;;;;4.55;3.78;;;;;;;-144.32;100.00;68061.97;10168344;29;20122;-79
2023/09/25 00:20:11;;;;;;;4.88;3.70;;;;;;;-144.32;100.00;68061.97;10172882;29;20904;-76
2023/09/25 00:25:12;;;;;;;4.85;3.50;;;;;;;-144.32;100.00;68061.97;10167742;28;20056;-77
2023/09/25 00:30:14;;;;;;;4.75;4.25;;;;;;;-144.32;100.00;68061.97;10166879;29;20052;-77
2023/09/25 00:35:14;;;;;;;5.97;4.97;;;;;;;-144.32;100.00;68061.97;10169364;29;20521;-77
2023/09/25 00:40:18;;;;;;;7.13;5.57;;;;;;;-144.32;100.00;68061.97;10145357;29;20056;-78
2023/09/25 00:45:18;;;;;;;;;;;;;;;-144.32;100.00;68061.97;10151673;29;20056;-77
2023/09/25 00:50:19;;;;;;;4.80;4.30;;;;;;;-144.32;100.00;68061.97;10174446;29;19927;-77
2023/09/25 00:55:19;;;;;;;5.75;4.65;;;;;;;-144.32;100.00;68061.97;10166285;29;20051;-78
2023/09/25 01:00:21;;;;;;;5.22;4.00;;;;;;;-144.32;100.00;68061.97;10167318;29;20498;-79
2023/09/25 01:05:26;;;;;;;6.90;4.70;;;;;;;-144.32;100.00;68061.97;10179964;29;20330;-79
2023/09/25 01:10:30;;;;;;;5.82;4.80;;;;;;;-144.32;100.00;68061.97;10194418;29;20160;-78
2023/09/25 01:15:31;;;;;;;6.00;4.53;;;;;;;-144.32;100.00;68061.97;10178799;29;20066;-79
2023/09/25 01:20:31;;;;;;;4.05;3.65;;;;;;;-144.32;100.00;68061.97;10184951;29;20051;-79
2023/09/25 01:25:32;;;;;;;4.50;4.10;;;;;;;-144.32;100.00;68061.97;10180047;29;20070;-78
2023/09/25 01:30:35;;;;;;;5.57;4.43;;;;;;;-144.32;100.00;68061.97;10161152;29;20055;-78
2023/09/25 01:35:35;;;;;;;;;;;;;;;-144.32;100.00;68061.97;10174769;29;20099;-78
2023/09/25 01:40:36;;;;;;;4.97;3.45;;;;;;;-144.32;100.00;68061.97;10177211;28;20016;-79
2023/09/25 01:45:36;;;;;;;5.20;3.42;;;;;;;-144.32;100.00;68061.97;10158551;29;20059;-77
2023/09/25 01:50:38;;;;;;;4.10;3.70;;;;;;;-144.32;100.00;68061.97;10161373;29;20467;-78
2023/09/25 01:55:40;;;;;;;5.03;3.72;;;;;;;-144.32;100.00;68061.97;10170320;29;20071;-78
2023/09/25 02:00:41;;;;;;;4.15;3.75;;;;;;;-144.32;100.00;68061.97;10164501;29;20077;-78
2023/09/25 02:05:44;;;;;;;4.72;3.50;;;;;;;-144.32;100.00;68061.97;10176851;29;20062;-79
2023/09/25 02:10:46;;;;;;;4.85;3.67;;;;;;;-144.32;100.00;68061.97;10171863;29;20104;-79
2023/09/25 02:15:47;;;;;;;5.13;4.35;;;;;;;-144.32;100.00;68061.97;10201187;29;20056;-80
2023/09/25 02:20:49;;;;;;;5.10;4.05;;;;;;;-144.32;100.00;68061.97;10172391;29;20051;-77
2023/09/25 02:25:49;;;;;;;5.07;3.85;;;;;;;-144.32;100.00;68061.97;10170139;28;20602;-76
2023/09/25 02:30:52;;;;;;;6.22;4.03;;;;;;;-144.32;100.00;68061.97;10164243;29;20048;-78
2023/09/25 02:36:06;;;;;;;4.82;4.00;;;;;;;-144.32;100.00;68061.97;10160778;29;20040;-79
2023/09/25 02:41:07;;;;;;;5.63;4.18;;;;;;;-144.32;100.00;68061.97;10140062;29;20856;-78
2023/09/25 02:46:07;;;;;;;5.05;4.07;;;;;;;-144.32;100.00;68061.97;10179990;29;20052;-78
2023/09/25 02:51:08;;;;;;;7.13;4.60;;;;;;;-144.32;100.00;68061.97;10189461;29;20043;-79
2023/09/25 02:56:08;;;;;;;5.30;4.03;;;;;;;-144.32;100.00;68061.97;10176810;29;20092;-78
2023/09/25 03:01:08;;;;;;;4.70;4.15;;;;;;;-144.32;100.00;68061.97;10167431;29;20048;-79
2023/09/25 03:06:09;;;;;;;5.03;4.50;;;;;;;-144.32;100.00;68061.97;10177466;29;20043;-80
2023/09/25 03:11:09;;;;;;;5.70;4.35;;;;;;;-144.32;100.00;68061.97;10183055;28;20131;-80
2023/09/25 03:16:14;;;;;;;5.43;4.22;;;;;;;-144.32;100.00;68061.97;10160133;28;21284;-79
2023/09/25 03:21:14;;;;;;;5.03;4.13;;;;;;;-144.32;100.00;68061.97;10184923;29;21031;-80
2023/09/25 03:26:16;;;;;;;4.63;4.20;;;;;;;-144.32;100.00;68061.97;10200201;29;20146;-80
2023/09/25 03:31:17;;;;;;;4.72;3.72;;;;;;;-144.32;100.00;68061.97;10168949;29;20074;-80
2023/09/25 03:36:18;;;;;;;4.13;3.72;;;;;;;-144.32;100.00;68061.97;10148854;29;20044;-80
2023/09/25 03:41:18;;;;;;;5.22;4.22;;;;;;;-144.32;100.00;68061.97;10170672;29;20040;-78
2023/09/25 03:46:19;;;;;;;4.68;3.88;;;;;;;-144.32;100.00;68061.97;10150803;29;20056;-80
2023/09/25 03:51:22;;;;;;;4.28;3.67;;;;;;;-144.32;100.00;68061.97;10155586;29;20047;-80
2023/09/25 03:56:23;;;;;;;4.18;3.42;;;;;;;-144.32;100.00;68061.97;10165918;29;20048;-79
2023/09/25 04:01:24;;;;;;;4.63;3.80;;;;;;;-144.32;100.00;68061.97;10169122;29;20086;-79
2023/09/25 04:06:24;;;;;;;4.07;3.30;;;;;;;-144.32;100.00;68061.97;10160663;29;20142;-78
2023/09/25 04:11:24;;;;;;;4.50;3.80;;;;;;;-144.32;100.00;68061.97;10166210;29;20054;-77
2023/09/25 04:16:27;;;;;;;4.70;3.92;;;;;;;-144.32;100.00;68061.97;10152488;29;20465;-76
2023/09/25 04:21:28;;;;;;;5.40;4.72;;;;;;;-144.32;100.00;68061.97;10181287;29;20062;-76
2023/09/25 04:26:29;;;;;;;5.05;4.30;;;;;;;-144.32;100.00;68061.97;10154040;29;20050;-77
2023/09/25 04:31:29;;;;;;;6.97;5.30;;;;;;;-144.32;100.00;68061.97;10193800;29;20055;-78
2023/09/25 04:36:30;;;;;;;5.63;5.05;;;;;;;-144.32;100.00;68061.97;10188817;29;20054;-79
2023/09/25 04:41:31;;;;;;;7.20;5.07;;;;;;;-144.32;100.00;68061.97;10177826;29;20051;-79
2023/09/25 04:46:32;;;;;;;6.15;4.75;;;;;;;-144.32;100.00;68061.97;10157793;29;20913;-78
2023/09/25 04:51:33;;;;;;;6.22;4.97;;;;;;;-144.32;100.00;68061.97;10155577;29;20048;-75
2023/09/25 04:56:34;;;;;;;6.55;5.45;;;;;;;-144.32;100.00;68061.97;10169300;29;20047;-75
2023/09/25 05:01:34;;;;;;;6.57;5.35;;;;;;;-144.32;100.00;68061.97;10166515;29;20937;-76
2023/09/25 05:06:35;;;;;;;5.47;4.95;;;;;;;-144.32;100.00;68061.97;10169712;29;20048;-76
2023/09/25 05:11:35;;;;;;;7.50;5.72;;;;;;;-144.32;100.00;68061.97;10171581;29;20055;-76
2023/09/25 05:16:35;;;;;;;7.55;5.55;;;;;;;-144.32;100.00;68061.97;10149276;29;20805;-76
2023/09/25 05:21:36;;;;;;;5.20;4.70;;;;;;;-144.32;100.00;68061.97;10166369;29;20748;-77
2023/09/25 05:26:37;;;;;;;8.55;6.15;;;;;;;-144.32;100.00;68061.97;10163155;29;20489;-76
2023/09/25 05:31:37;;;;;;;6.53;5.78;;;;;;;-144.32;100.00;68061.97;10156870;29;20052;-76
2023/09/25 05:36:38;;;;;;;8.27;5.95;;;;;;;-144.32;100.00;68061.97;10160077;29;20484;-76
2023/09/25 05:41:38;;;;;;;5.80;5.00;;;;;;;-144.32;100.00;68061.97;10153224;29;20155;-77
2023/09/25 05:46:39;;;;;;;8.38;6.53;;;;;;;-144.32;100.00;68061.97;10161072;29;20052;-76
2023/09/25 05:51:39;;;;;;;8.43;5.93;;;;;;;-144.32;100.00;68061.97;10163263;29;20055;-76
2023/09/25 05:56:40;;;;;;;12.35;6.85;;;;;;;-144.32;100.00;68061.97;10170607;29;20571;-75
2023/09/25 06:01:40;;;;;;;9.57;8.48;;;;;;;-144.32;100.00;68061.97;10178194;29;20058;-76
2023/09/25 06:06:40;;;;;;;9.98;8.98;;;;;;;-144.32;100.00;68061.97;10159905;29;20283;-76
2023/09/25 06:11:42;;;;;;;11.48;7.72;;;;;;;-144.32;100.00;68061.97;10181735;29;20058;-76
2023/09/25 06:16:43;;;;;;;9.80;8.32;;;;;;;-144.32;100.00;68061.97;10176480;28;20051;-76
2023/09/25 06:21:44;;;;;;;12.57;8.77;;;;;;;-144.32;100.00;68061.97;10170644;29;20079;-77
2023/09/25 06:26:46;;;;;;;9.77;8.57;;;;;;;-144.32;100.00;68061.97;10156102;29;20939;-76
2023/09/25 06:31:47;;;;;;;10.07;7.07;;;;;;;-144.32;100.00;68061.97;10182654;29;20043;-77
2023/09/25 06:36:48;;;;;;;9.93;7.00;;;;;;;-144.32;100.00;68061.97;10171245;29;20048;-77
2023/09/25 06:41:48;;;;;;;8.57;6.60;;;;;;;-144.32;100.00;68061.97;10169527;28;20051;-77
2023/09/25 06:46:53;;;;;;;8.82;7.40;;;;;;;-144.32;100.00;68061.97;10174931;29;20604;-78
2023/09/25 06:51:53;;;;;;;8.93;7.63;;;;;;;-144.32;100.00;68061.97;10184802;29;20056;-76
2023/09/25 06:56:54;;;;;;;7.97;6.65;;;;;;;-144.32;100.00;68061.97;10174391;29;20055;-76
2023/09/25 07:01:54;;;;;;;10.10;6.57;;;;;;;-144.32;100.00;68061.97;10167740;29;20071;-76
2023/09/25 07:06:56;;;;;;;8.40;6.28;;;;;;;-144.32;100.00;68061.97;10169479;29;20436;-78
2023/09/25 07:11:56;;;;;;;9.05;6.57;;;;;;;-144.32;100.00;68061.97;10171705;29;20047;-77
2023/09/25 07:16:57;;;;;;;6.80;6.10;;;;;;;-144.32;100.00;68061.97;10164469;29;20086;-78
2023/09/25 07:21:58;;;;;;;8.07;6.10;;;;;;;-144.32;100.00;68061.97;10175940;28;20044;-77
2023/09/25 07:26:59;;;;;;;6.00;5.40;;;;;;;-144.32;100.00;68061.97;10167835;29;20507;-76
2023/09/25 07:32:00;;;;;;;6.55;5.95;;;;;;;-144.32;100.00;68061.97;10172570;29;20051;-77
2023/09/25 07:37:04;;;;;;;5.80;5.25;;;;;;;-144.32;100.00;68061.97;10195880;29;20104;-79
2023/09/25 07:42:05;;;;;;;36.25;23.00;;;;;;;-144.32;100.00;68061.97;10185646;29;20112;-77
2023/09/25 07:47:10;;;;;;;8.25;7.30;;;;;;;-144.32;100.00;68061.97;10178154;29;20044;-76
2023/09/25 07:52:19;;;;;;;6.10;5.15;;;;;;;-144.32;100.00;68061.97;10193524;29;20171;-76
2023/09/25 07:57:20;;;;;;;6.93;4.85;;;;;;;-144.32;100.00;68061.97;10181931;29;20523;-78
2023/09/25 08:02:21;;;;;;;5.15;4.40;;;;;;;-144.32;100.00;68061.97;10176555;29;20055;-77
2023/09/25 08:07:21;;;;;;;3.72;3.42;;;;;;;-144.32;100.00;68061.97;10170259;29;20052;-77
2023/09/25 08:12:25;;;;;;;4.88;4.25;;;;;;;-144.32;100.00;68061.97;10173845;29;20071;-77
2023/09/25 08:17:26;;;;;;;4.25;3.85;;;;;;;-144.32;100.00;68061.97;10179845;29;20055;-76
2023/09/25 08:22:26;;;;;;;5.28;3.90;;;;;;;-144.32;100.00;68061.97;10202593;29;20339;-76
2023/09/25 08:27:27;;;;;;;8.65;7.43;;;;;;;-144.32;100.00;68061.97;10174080;29;20044;-79
2023/09/25 08:32:27;;;;;;;3.92;3.20;;;;;;;-144.32;100.00;68061.97;10172780;29;20889;-78
2023/09/25 08:37:28;;;;;;;3.63;3.25;;;;;;;-144.32;100.00;68061.97;10163275;29;20063;-79
2023/09/25 08:42:28;;;;;;;3.55;2.88;;;;;;;-144.32;100.00;68061.97;10165502;29;20047;-77
2023/09/25 08:47:31;;;;;;;4.85;2.80;;;;;;;-144.32;100.00;68061.97;10172062;29;20075;-79
2023/09/25 08:52:31;;;;;;;3.20;2.90;;;;;;;-144.32;100.00;68061.97;10167541;29;20056;-79
2023/09/25 08:57:33;;;;;;;3.55;2.83;;;;;;;-144.32;100.00;68061.97;10171648;29;20039;-77
2023/09/25 09:02:33;;;;;;;3.00;2.70;;;;;;;-144.32;100.00;68061.97;10167106;29;20139;-76
2023/09/25 09:07:34;;;;;;;4.57;3.20;;;;;;;-144.32;100.00;68061.97;10168007;29;20493;-76
2023/09/25 09:12:51;;;;;;;3.40;2.55;;;;;;;-144.32;100.00;68061.97;10182070;29;20774;-77
2023/09/25 09:17:57;;;;;;;3.28;2.50;;;;;;;-144.32;100.00;68061.97;10145759;29;20416;-77
2023/09/25 09:22:57;;;;;;;3.13;2.83;;;;;;;-144.32;100.00;68061.97;10165837;28;20414;-77
2023/09/25 09:27:58;;;;;;;2.78;2.58;;;;;;;-144.32;100.00;68061.97;10170664;28;20048;-77
2023/09/25 09:32:59;;;;;;;2.95;2.53;;;;;;;-144.32;100.00;68061.97;10170442;29;20072;-78
2023/09/25 09:38:02;;;;;;;2.88;2.30;;;;;;;-144.32;100.00;68061.97;10171965;29;20604;-77
2023/09/25 09:43:05;;;;;;;3.28;2.30;;;;;;;-144.32;100.00;68061.97;10182957;28;20055;-77
2023/09/25 09:48:07;;;;;;;3.70;2.30;;;;;;;-144.32;100.00;68061.97;10181965;29;20130;-77
2023/09/25 09:53:09;;;;;;;3.55;2.50;;;;;;;-144.32;100.00;68061.97;10178952;29;20126;-77
2023/09/25 09:58:11;;;;;;;3.07;2.33;;;;;;;-144.32;100.00;68061.97;10171663;29;20052;-75
2023/09/25 10:03:12;;;;;;;2.90;2.00;;;;;;;-144.32;100.00;68061.97;10177101;29;20044;-77
2023/09/25 10:08:12;;;;;;;2.35;2.15;;;;;;;-144.32;100.00;68061.97;10175738;28;20067;-78
2023/09/25 10:13:25;;;;;;;2.90;2.70;;;;;;;-144.32;100.00;68061.97;10173043;29;20440;-78
2023/09/25 10:18:26;;;;;;;;;;;;;;;-144.32;100.00;68061.97;10192264;29;20142;-78
2023/09/25 10:23:27;;;;;;;2.28;1.80;;;;;;;-144.32;100.00;68061.97;10181504;29;20367;-77
2023/09/25 10:28:37;;;;;;;3.00;2.15;;;;;;;-144.32;100.00;68061.97;10178324;29;20055;-78
2023/09/25 10:33:37;;;;;;;2.72;2.00;;;;;;;-144.32;100.00;68061.97;10173164;29;20048;-77
2023/09/25 10:38:41;;;;;;;2.20;2.00;;;;;;;-144.32;100.00;68061.97;10171453;29;20048;-78
2023/09/25 10:43:42;;;;;;;2.10;2.00;;;;;;;-144.32;100.00;68061.97;10183029;28;20135;-79
2023/09/25 10:48:42;;;;;;;2.40;2.20;;;;;;;-144.32;100.00;68061.97;10179316;29;20052;-78
2023/09/25 10:53:43;;;;;;;2.22;2.03;;;;;;;-144.32;100.00;68061.97;10181517;29;20047;-78
2023/09/25 10:58:52;;;;;;;2.03;1.90;;;;;;;-144.32;100.00;68061.97;10170430;29;20066;-76
2023/09/25 11:03:53;;;;;;;3.88;2.60;;;;;;;-144.32;100.00;68061.97;10152078;29;20146;-76
2023/09/25 11:09:11;;;;;;;2.17;1.98;;;;;;;-144.32;100.00;68061.97;10174970;28;20044;-77
2023/09/25 11:14:15;;;;;;;1.73;1.55;;;;;;;-144.32;100.00;68061.97;10164455;29;20783;-77
2023/09/25 11:19:15;;;;;;;2.17;1.98;;;;;;;-144.32;100.00;68061.97;10173271;29;20068;-78
2023/09/25 11:24:18;;;;;;;2.10;2.00;;;;;;;-144.32;100.00;68061.97;10171805;29;20909;-79
2023/09/25 11:29:19;;;;;;;2.30;2.10;;;;;;;-144.32;100.00;68061.97;10176569;29;20055;-78
2023/09/25 11:34:20;;;;;;;1.88;1.70;;;;;;;-144.32;100.00;68061.97;10171317;29;20058;-77
2023/09/25 11:39:20;;;;;;;3.05;2.05;;;;;;;-144.32;100.00;68061.97;10177241;29;20119;-78
2023/09/25 11:44:20;;;;;;;2.38;2.00;;;;;;;-144.32;100.00;68061.97;10172431;29;20051;-77
2023/09/25 11:49:21;;;;;;;2.95;1.90;;;;;;;-144.32;100.00;68061.97;10173017;29;20098;-76
2023/09/25 11:54:21;;;;;;;3.15;2.10;;;;;;;-144.32;100.00;68061.97;10164744;29;20047;-79
2023/09/25 11:59:22;;;;;;;2.75;2.03;;;;;;;-144.32;100.00;68061.97;10159646;29;20048;-78
2023/09/25 12:04:22;;;;;;;2.15;1.83;;;;;;;-144.32;100.00;68061.97;10187412;29;20055;-78
2023/09/25 12:09:24;;;;;;;3.28;1.80;;;;;;;-144.32;100.00;68061.97;10182001;29;20040;-78
2023/09/25 12:14:24;;;;;;;2.15;1.95;;;;;;;-144.32;100.00;68061.97;10168921;29;20369;-79
2023/09/25 12:19:25;;;;;;;8.95;7.45;;;;;;;-144.32;100.00;68061.97;10190602;29;20080;-81
2023/09/25 12:24:26;;;;;;;2.50;2.08;;;;;;;-144.32;100.00;68061.97;10176218;29;20047;-76
2023/09/25 12:29:27;;;;;;;2.10;1.90;;;;;;;-144.32;100.00;68061.97;10174556;28;20071;-78
2023/09/25 12:34:27;;;;;;;3.20;1.77;;;;;;;-144.32;100.00;68061.97;10167932;29;20154;-79
2023/09/25 12:39:27;;;;;;;2.25;2.05;;;;;;;-144.32;100.00;68061.97;10194521;29;20051;-77
2023/09/25 12:44:28;;;;;;;2.28;2.15;;;;;;;-144.32;100.00;68061.97;10173569;29;20077;-77
2023/09/25 12:49:29;;;;;;;2.28;1.80;;;;;;;-144.32;100.00;68061.97;10175980;29;20566;-75
2023/09/25 12:54:29;;;;;;;2.67;2.00;;;;;;;-144.32;100.00;68061.97;10172502;29;20044;-75
2023/09/25 12:59:30;;;;;;;3.20;2.08;;;;;;;-144.32;100.00;68061.97;10171103;29;20048;-74
2023/09/25 13:04:31;;;;;;;2.47;2.05;;;;;;;-144.32;100.00;68061.97;10173447;29;20054;-74
2023/09/25 13:09:34;;;;;;;2.03;1.67;;;;;;;-144.32;100.00;68061.97;10163366;29;20059;-75
2023/09/25 13:14:35;;;;;;;2.08;1.90;;;;;;;-144.32;100.00;68061.97;10171937;29;20072;-76
2023/09/25 13:19:36;;;;;;;2.45;1.83;;;;;;;-144.32;100.00;68061.97;10169163;29;20036;-76
2023/09/25 13:24:36;;;;;;;1.92;1.83;;;;;;;-144.32;100.00;68061.97;10170182;29;20111;-75
2023/09/25 13:29:37;;;;;;;3.38;2.00;;;;;;;-144.32;100.00;68061.97;10167500;29;20478;-75
2023/09/25 13:34:41;;;;;;;2.38;1.65;;;;;;;-144.32;100.00;68061.97;10163894;28;20601;-79
2023/09/25 13:39:45;;;;;;;2.13;1.92;;;;;;;-144.32;100.00;68061.97;10172233;29;20048;-78
2023/09/25 13:44:45;;;;;;;2.78;2.15;;;;;;;-144.32;100.00;68061.97;10171324;29;20496;-79
2023/09/25 13:49:47;;;;;;;1.90;1.70;;;;;;;-144.32;100.00;68061.97;10183047;29;20474;-80
2023/09/25 13:54:48;;;;;;;1.92;1.80;;;;;;;-144.32;100.00;68061.97;10179830;28;20140;-80
2023/09/25 13:59:50;;;;;;;2.75;1.90;;;;;;;-144.32;100.00;68061.97;10178337;29;20040;-80
2023/09/25 14:04:50;;;;;;;2.20;1.98;;;;;;;-144.32;100.00;68061.97;10188022;29;20047;-79
2023/09/25 14:09:51;;;;;;;1.92;1.80;;;;;;;-144.32;100.00;68061.97;10178619;29;20418;-79
2023/09/25 14:14:51;;;;;;;1.90;1.80;;;;;;;-144.32;100.00;68061.97;10184933;29;20112;-79
2023/09/25 14:19:51;;;;;;;2.40;2.20;;;;;;;-144.32;100.00;68061.97;10164565;29;20067;-77
2023/09/25 14:24:52;;;;;;;2.67;1.95;;;;;;;-144.32;100.00;68061.97;10173391;29;20048;-77
2023/09/25 14:29:54;;;;;;;2.03;1.70;;;;;;;-144.32;100.00;68061.97;10174334;29;20044;-80
2023/09/25 14:34:55;;;;;;;;;;;;;;;-144.32;100.00;68061.97;10175160;29;20407;-78
2023/09/25 14:39:57;;;;;;;2.67;1.98;;;;;;;-144.32;100.00;68061.97;10180048;29;19923;-80
2023/09/25 14:44:57;;;;;;;2.45;1.92;;;;;;;-144.32;100.00;68061.97;10173611;29;20051;-79
2023/09/25 14:49:58;;;;;;;2.78;2.45;;;;;;;-144.32;100.00;68061.97;10177752;28;20040;-78
2023/09/25 14:54:59;;;;;;;2.45;2.20;;;;;;;-144.32;100.00;68061.97;10183362;29;20051;-77
2023/09/25 15:00:00;;;;;;;3.17;2.13;;;;;;;-144.32;100.00;68061.97;10151649;29;20052;-78
2023/09/25 15:05:00;;;;;;;3.45;2.55;;;;;;;-144.32;100.00;68061.97;10170584;29;20047;-79
2023/09/25 15:10:03;;;;;;;2.65;2.03;;;;;;;-144.32;100.00;68061.97;10167262;28;20659;-79
2023/09/25 15:15:04;;;;;;;2.85;2.00;;;;;;;-144.32;100.00;68061.97;10168599;29;20370;-78
2023/09/25 15:20:05;;;;;;;2.25;1.80;;;;;;;-144.32;100.00;68061.97;10146899;29;20047;-77
2023/09/25 15:25:06;;;;;;;2.53;2.03;;;;;;;-144.32;100.00;68061.97;10140608;28;20087;-76
2023/09/25 15:30:08;;;;;;;3.45;2.35;;;;;;;-144.32;100.00;68061.97;10171050;29;20052;-77
2023/09/25 15:35:09;;;;;;;3.00;1.83;;;;;;;-144.32;100.00;68061.97;10166795;29;20059;-75
2023/09/25 15:40:09;;;;;;;3.22;1.80;;;;;;;-144.32;100.00;68061.97;10181501;29;20059;-77
2023/09/25 15:45:10;;;;;;;2.33;2.00;;;;;;;-144.32;100.00;68061.97;10180185;29;20056;-77
2023/09/25 15:50:12;;;;;;;4.75;4.20;;;;;;;-144.32;100.00;68061.97;10167137;29;20056;-77
2023/09/25 15:55:12;;;;;;;2.13;1.95;;;;;;;-144.32;100.00;68061.97;10164266;29;20052;-76
2023/09/25 16:00:14;;;;;;;2.40;2.20;;;;;;;-144.32;100.00;68061.97;10165598;29;21049;-78
2023/09/25 16:05:14;;;;;;;4.00;3.07;;;;;;;-144.32;100.00;68061.97;10179247;29;20060;-77
2023/09/25 16:10:15;;;;;;;2.30;2.10;;;;;;;-144.32;100.00;68061.97;10169070;29;20103;-77
2023/09/25 16:15:16;;;;;;;7.15;6.30;;;;;;;-144.32;100.00;68061.97;10167812;28;20524;-78
2023/09/25 16:20:16;;;;;;;2.50;2.30;;;;;;;-144.32;100.00;68061.97;10147616;29;20058;-75
2023/09/25 16:25:17;;;;;;;4.00;3.60;;;;;;;-144.32;100.00;68061.97;10148313;29;20051;-75
2023/09/25 16:30:17;;;;;;;3.95;3.13;;;;;;;-144.32;100.00;68061.97;10162250;29;20477;-74
2023/09/25 16:35:20;;;;;;;3.28;2.65;;;;;;;-144.32;100.00;68061.97;10163086;29;20043;-76
2023/09/25 16:40:20;;;;;;;;;;;;;;;-144.32;100.00;68061.97;10172259;28;20036;-74
2023/09/25 16:45:23;;;;;;;3.50;3.20;;;;;;;-144.32;100.00;68061.97;10168466;29;20201;-75
2023/09/25 16:50:23;;;;;;;2.95;2.60;;;;;;;-144.32;100.00;68061.97;10147991;29;20699;-76
2023/09/25 16:55:24;;;;;;;3.00;2.80;;;;;;;-144.32;100.00;68061.97;10162541;29;20044;-74
2023/09/25 17:00:24;;;;;;;3.28;2.97;;;;;;;-144.32;100.00;68061.97;10165400;29;20048;-75
2023/09/25 17:05:25;;;;;;;3.22;3.00;;;;;;;-144.32;100.00;68061.97;10156972;29;20485;-75
2023/09/25 17:10:27;;;;;;;3.58;2.90;;;;;;;-144.32;100.00;68061.97;10164083;29;20051;-75
2023/09/25 17:15:35;;;;;;;6.60;4.17;;;;;;;-144.32;100.00;68061.97;10178467;29;20048;-77
2023/09/25 17:20:36;;;;;;;4.68;4.18;;;;;;;-144.32;100.00;68061.97;10168340;28;20047;-76
2023/09/25 17:25:37;;;;;;;4.10;3.70;;;;;;;-144.32;100.00;68061.97;10165072;29;20464;-75
2023/09/25 17:30:37;;;;;;;4.80;3.70;;;;;;;-144.32;100.00;68061.97;10159280;29;20048;-75
2023/09/25 17:35:38;;;;;;;4.00;3.60;;;;;;;-144.32;100.00;68061.97;10165037;29;20060;-78
2023/09/25 17:40:39;;;;;;;4.45;4.05;;;;;;;-144.32;100.00;68061.97;10174635;29;20052;-77
2023/09/25 17:45:39;;;;;;;5.03;4.28;;;;;;;-144.32;100.00;68061.97;10176269;29;20549;-78
2023/09/25 17:50:40;;;;;;;4.80;3.65;;;;;;;-144.32;100.00;68061.97;10176165;29;20100;-77
2023/09/25 17:55:40;;;;;;;5.18;4.03;;;;;;;-144.32;100.00;68061.97;10149926;29;20058;-77
2023/09/25 18:00:41;;;;;;;6.13;4.68;;;;;;;-144.32;100.00;68061.97;10141741;29;20587;-77
2023/09/25 18:05:41;;;;;;;6.93;5.68;;;;;;;-144.32;100.00;68061.97;10156975;29;20079;-77
2023/09/25 18:10:42;;;;;;;6.20;5.20;;;;;;;-144.32;100.00;68061.97;10155205;29;20067;-77
2023/09/25 18:15:44;;;;;;;5.40;4.85;;;;;;;-144.32;100.00;68061.97;10174098;29;20048;-78
2023/09/25 18:20:45;;;;;;;5.83;5.27;;;;;;;-144.32;100.00;68061.97;10180023;29;20127;-78
2023/09/25 18:25:45;;;;;;;7.05;5.18;;;;;;;-144.32;100.00;68061.97;10167821;29;20308;-77
2023/09/25 18:30:46;;;;;;;5.75;4.95;;;;;;;-144.32;100.00;68061.97;10140178;29;20099;-76
2023/09/25 18:35:46;;;;;;;5.28;4.38;;;;;;;-144.32;100.00;68061.97;10163324;29;20045;-74
2023/09/25 18:40:47;;;;;;;6.57;5.03;;;;;;;-144.32;100.00;68061.97;10166044;29;20137;-76
2023/09/25 18:45:47;;;;;;;5.80;5.13;;;;;;;-144.32;100.00;68061.97;10181107;29;20561;-76
2023/09/25 18:50:48;;;;;;;5.20;4.70;;;;;;;-144.32;100.00;68061.97;10180569;29;20052;-76
2023/09/25 18:55:48;;;;;;;4.88;4.35;;;;;;;-144.32;100.00;68061.97;10188462;29;20079;-77
2023/09/25 19:00:50;;;;;;;7.93;5.95;;;;;;;-144.32;100.00;68061.97;10175663;29;20757;-78
2023/09/25 19:05:53;;;;;;;7.97;6.47;;;;;;;-144.32;100.00;68061.97;10179763;29;20055;-80
2023/09/25 19:10:53;;;;;;;7.65;6.15;;;;;;;-144.32;100.00;68061.97;10182853;29;20131;-80
2023/09/25 19:15:55;;;;;;;6.38;5.18;;;;;;;-144.32;100.00;68061.97;10184572;29;20054;-79
2023/09/25 19:20:55;;;;;;;6.15;5.55;;;;;;;-144.32;100.00;68061.97;10156364;29;20048;-80
2023/09/25 19:25:57;;;;;;;6.80;5.05;;;;;;;-144.32;100.00;68061.97;10192447;29;20047;-80
2023/09/25 19:30:57;;;;;;;6.10;5.03;;;;;;;-144.32;100.00;68061.97;10201569;29;20040;-80
2023/09/25 19:35:58;;;;;;;5.30;4.80;;;;;;;-144.32;100.00;68061.97;10177026;29;20048;-77
2023/09/25 19:40:58;;;;;;;6.78;5.20;;;;;;;-144.32;100.00;68061.97;10173013;28;20047;-78
2023/09/25 19:45:59;;;;;;;6.18;5.25;;;;;;;-144.32;100.00;68061.97;10168589;28;20051;-79
2023/09/25 19:51:00;;;;;;;5.57;4.93;;;;;;;-144.32;100.00;68061.97;10174348;29;20060;-79
2023/09/25 19:56:01;;;;;;;6.88;5.75;;;;;;;-144.32;100.00;68061.97;10180651;29;20501;-78
2023/09/25 20:01:09;;;;;;;6.45;5.43;;;;;;;-144.32;100.00;68061.97;10173821;29;20056;-81
2023/09/25 20:06:12;;;;;;;7.22;5.95;;;;;;;-144.32;100.00;68061.97;10167233;29;20048;-79
2023/09/25 20:11:12;;;;;;;6.80;6.10;;;;;;;-144.32;100.00;68061.97;10135324;29;20059;-79
2023/09/25 20:16:13;;;;;;;6.10;5.50;;;;;;;-144.32;100.00;68061.97;10170084;29;20040;-79
2023/09/25 20:21:16;;;;;;;7.68;6.50;;;;;;;-144.32;100.00;68061.97;10185932;29;20076;-79
2023/09/25 20:26:16;;;;;;;7.07;6.20;;;;;;;-144.32;100.00;68061.97;10181646;29;20757;-78
2023/09/25 20:31:18;;;;;;;6.55;5.90;;;;;;;-144.32;100.00;68061.97;10163582;29;20829;-78
2023/09/25 20:36:19;;;;;;;7.93;6.23;;;;;;;-144.32;100.00;68061.97;10183600;29;20043;-78
2023/09/25 20:41:21;;;;;;;7.65;6.10;;;;;;;-144.32;100.00;68061.97;10168961;29;20055;-77
2023/09/25 20:46:21;;;;;;;6.97;6.32;;;;;;;-144.32;100.00;68061.97;10178176;29;20134;-77
2023/09/25 20:51:22;;;;;;;7.18;6.43;;;;;;;-144.32;100.00;68061.97;10157666;29;20046;-79
2023/09/25 20:56:22;;;;;;;7.45;6.50;;;;;;;-144.32;100.00;68061.97;10171998;29;20048;-78
2023/09/25 21:01:23;;;;;;;8.80;7.22;;;;;;;-144.32;100.00;68061.97;10174706;28;20075;-78
2023/09/25 21:06:25;;;;;;;8.20;7.20;;;;;;;-144.32;100.00;68061.97;10154830;29;20420;-78
2023/09/25 21:11:29;;;;;;;7.70;6.93;;;;;;;-144.32;100.00;68061.97;10153639;29;20043;-78
2023/09/25 21:16:30;;;;;;;7.95;6.78;;;;;;;-144.32;100.00;68061.97;10174199;28;20047;-77
2023/09/25 21:21:30;;;;;;;7.72;6.75;;;;;;;-144.32;100.00;68061.97;10170258;29;20117;-77
2023/09/25 21:26:30;;;;;;;8.15;7.35;;;;;;;-144.32;100.00;68061.97;10168150;29;20166;-77
2023/09/25 21:31:31;;;;;;;7.75;6.95;;;;;;;-144.32;100.00;68061.97;10181648;29;20055;-78
2023/09/25 21:36:31;;;;;;;8.00;6.80;;;;;;;-144.32;100.00;68061.97;10176087;29;20098;-79
2023/09/25 21:41:32;;;;;;;7.68;6.90;;;;;;;-144.32;100.00;68061.97;10190505;29;20046;-79
2023/09/25 21:46:32;;;;;;;7.75;6.97;;;;;;;-144.32;100.00;68061.97;10177115;29;20135;-80
2023/09/25 21:51:33;;;;;;;8.30;7.07;;;;;;;-144.32;100.00;68061.97;10190293;29;20044;-79
2023/09/25 21:56:33;;;;;;;8.05;6.95;;;;;;;-144.32;100.00;68061.97;10184896;29;20056;-77
2023/09/25 22:01:34;;;;;;;7.30;6.22;;;;;;;-144.32;100.00;68061.97;10174608;29;20051;-78
2023/09/25 22:06:34;;;;;;;7.55;6.85;;;;;;;-144.32;100.00;68061.97;10169508;29;20384;-77
2023/09/25 22:11:35;;;;;;;7.32;6.50;;;;;;;-144.32;100.00;68061.97;10151442;29;20048;-79
2023/09/25 22:16:35;;;;;;;8.15;6.78;;;;;;;-144.32;100.00;68061.97;10151162;29;20052;-79
2023/09/25 22:21:39;;;;;;;6.63;5.93;;;;;;;-144.32;100.00;68061.97;10144621;28;20047;-78
2023/09/25 22:26:39;;;;;;;6.75;5.72;;;;;;;-144.32;100.00;68061.97;10161585;29;20052;-79
2023/09/25 22:31:41;;;;;;;8.43;7.03;;;;;;;-144.32;100.00;68061.97;10161801;29;20044;-79